Time;durP1;ratioP1;P1;durP2;ratioP2;P2;SDS_P1;SDS_P2;PMS_P1;PMS_P2;Temp;Humidity;BMP_temperature;BMP_pressure;BME280_temperature;BME280_humidity;BME280_pressure;Samples;Min_cycle;Max_cycle;Signal;HPM_P1;HPM_P2
2021/05/27 00:00:10;;;;;;;23.92;8.82;;;;;;;13.47;63.24;101568.50;5034991;28;20424;-86
2021/05/27 00:02:36;;;;;;;24.27;8.32;;;;;;;13.40;63.89;101574.84;5035339;28;20465;-85
2021/05/27 00:05:05;;;;;;;30.13;11.98;;;;;;;13.28;64.17;101573.25;5033053;28;20068;-86
2021/05/27 00:07:33;;;;;;;27.80;9.20;;;;;;;13.42;63.57;101565.03;5035107;28;20477;-86
2021/05/27 00:09:59;;;;;;;24.08;8.57;;;;;;;13.36;64.05;101567.81;5035255;28;20040;-86
2021/05/27 00:12:26;;;;;;;32.10;11.27;;;;;;;13.26;64.17;101575.09;5035154;28;20034;-86
2021/05/27 00:14:53;;;;;;;37.78;9.48;;;;;;;13.31;63.99;101577.63;5034861;28;20049;-87
2021/05/27 00:17:20;;;;;;;25.67;9.35;;;;;;;13.16;64.34;101568.16;5034398;28;20425;-87
2021/05/27 00:19:47;;;;;;;26.42;9.27;;;;;;;13.16;64.56;101566.41;5034755;28;20087;-86
2021/05/27 00:22:13;;;;;;;26.60;8.88;;;;;;;13.16;64.34;101579.72;5032654;28;20114;-86
2021/05/27 00:24:40;;;;;;;25.13;8.57;;;;;;;13.18;64.20;101577.88;5034413;28;20148;-85
2021/05/27 00:27:07;;;;;;;18.92;8.23;;;;;;;13.13;64.34;101578.88;5035129;28;20116;-85
2021/05/27 00:29:34;;;;;;;23.95;7.75;;;;;;;13.10;63.99;101579.81;5026745;28;20474;-86
2021/05/27 00:32:01;;;;;;;22.95;8.65;;;;;;;13.16;63.40;101584.13;5027273;28;20065;-86
2021/05/27 00:34:27;;;;;;;24.08;8.50;;;;;;;13.17;63.28;101584.13;5024853;28;20025;-87
2021/05/27 00:36:54;;;;;;;23.55;7.68;;;;;;;13.29;63.35;101598.09;5037372;28;20104;-88
2021/05/27 00:39:20;;;;;;;23.13;8.30;;;;;;;13.10;63.57;101586.00;5026274;28;20040;-87
2021/05/27 00:41:47;;;;;;;25.98;9.07;;;;;;;13.20;63.54;101597.34;5038279;28;20056;-85
2021/05/27 00:44:30;;;;;;;21.60;8.25;;;;;;;13.20;63.41;101591.19;5038665;28;20025;-87
2021/05/27 00:46:59;;;;;;;27.42;8.95;;;;;;;13.18;63.44;101591.19;5037993;28;20029;-87
2021/05/27 00:49:25;;;;;;;29.60;9.27;;;;;;;13.08;64.17;101592.25;5038358;28;20021;-87
2021/05/27 00:51:53;;;;;;;25.77;8.63;;;;;;;13.20;63.46;101597.34;5038731;28;20037;-86
2021/05/27 00:54:20;;;;;;;25.73;11.23;;;;;;;13.27;63.66;101588.34;5036483;28;20026;-86
2021/05/27 00:56:49;;;;;;;22.42;8.68;;;;;;;13.27;63.03;101599.00;5038548;28;20078;-84
2021/05/27 00:59:16;;;;;;;27.13;8.57;;;;;;;13.11;63.97;101603.72;5030695;28;20384;-86
2021/05/27 01:01:43;;;;;;;30.08;9.68;;;;;;;13.15;63.84;101587.72;5018916;28;20044;-86
2021/05/27 01:04:10;;;;;;;21.48;8.32;;;;;;;13.06;63.91;101605.59;5034074;28;20059;-85
2021/05/27 01:06:36;;;;;;;26.38;9.55;;;;;;;13.04;64.48;101596.75;5033279;28;20108;-86
2021/05/27 01:09:05;;;;;;;23.35;7.80;;;;;;;12.97;63.95;101607.53;5034262;28;20064;-85
2021/05/27 01:11:31;;;;;;;30.67;8.23;;;;;;;12.86;64.40;101608.63;5032686;28;20029;-86
2021/05/27 01:14:09;;;;;;;18.73;8.23;;;;;;;13.02;64.41;101609.22;5034103;28;20527;-87
2021/05/27 01:16:36;;;;;;;23.92;8.13;;;;;;;12.99;64.25;101611.06;5033503;28;20492;-85
2021/05/27 01:19:02;;;;;;;18.50;7.57;;;;;;;13.09;63.75;101599.34;5033325;28;20061;-85
2021/05/27 01:21:32;;;;;;;19.58;7.38;;;;;;;13.13;63.58;101609.03;5033219;28;20133;-86
2021/05/27 01:24:00;;;;;;;20.27;7.43;;;;;;;12.99;63.74;101608.41;5033820;28;20102;-86
2021/05/27 01:26:26;;;;;;;23.55;8.27;;;;;;;13.09;63.30;101605.53;5033305;28;20037;-86
2021/05/27 01:28:53;;;;;;;26.65;8.77;;;;;;;13.19;63.42;101606.25;5033221;28;20065;-86
2021/05/27 01:31:19;;;;;;;24.73;8.82;;;;;;;13.19;63.00;101606.25;5033493;28;20107;-86
2021/05/27 01:33:46;;;;;;;35.10;9.57;;;;;;;13.15;63.24;101609.88;5033426;28;20037;-86
2021/05/27 01:36:12;;;;;;;31.25;10.65;;;;;;;13.04;63.90;101611.84;5033554;28;20025;-86
2021/05/27 01:38:39;;;;;;;31.77;9.73;;;;;;;12.93;63.97;101610.28;5033262;28;20396;-86
2021/05/27 01:41:05;;;;;;;21.38;10.05;;;;;;;13.01;63.75;101612.78;5032882;28;20499;-86
2021/05/27 01:43:32;;;;;;;23.40;9.93;;;;;;;13.12;63.90;101615.25;5033369;28;20481;-86
2021/05/27 01:45:58;;;;;;;26.67;9.65;;;;;;;13.03;64.12;101623.41;5033146;28;20028;-87
2021/05/27 01:48:25;;;;;;;27.38;9.45;;;;;;;13.09;63.97;101613.50;5033216;28;20112;-85
2021/05/27 01:50:51;;;;;;;30.98;8.98;;;;;;;13.01;63.99;101617.22;5032529;28;20389;-86
2021/05/27 01:53:18;;;;;;;25.02;9.82;;;;;;;12.91;64.76;101621.81;5033437;28;20240;-85
2021/05/27 01:55:48;;;;;;;25.77;9.57;;;;;;;13.06;64.38;101618.91;5032808;28;20476;-86
2021/05/27 01:58:15;;;;;;;32.45;10.95;;;;;;;13.03;64.20;101618.09;5033293;28;20550;-86
2021/05/27 02:00:42;;;;;;;30.67;9.45;;;;;;;13.04;63.98;101627.81;5032259;28;20030;-86
2021/05/27 02:03:09;;;;;;;33.08;10.13;;;;;;;12.86;64.55;101624.56;5032077;28;20105;-86
2021/05/27 02:05:37;;;;;;;30.20;10.27;;;;;;;12.99;64.58;101629.69;5028553;28;20072;-86
2021/05/27 02:08:04;;;;;;;31.92;8.55;;;;;;;12.94;63.94;101625.31;5032566;28;20112;-85
2021/05/27 02:10:31;;;;;;;23.83;8.60;;;;;;;12.84;64.37;101623.72;5032097;28;20295;-85
2021/05/27 02:12:57;;;;;;;33.17;8.60;;;;;;;12.86;64.46;101623.69;5032865;28;20491;-86
2021/05/27 02:15:24;;;;;;;23.48;8.60;;;;;;;12.97;63.71;101620.84;5032315;28;20029;-85
2021/05/27 02:17:50;;;;;;;26.35;9.05;;;;;;;12.99;63.86;101624.38;5031476;28;20033;-85
2021/05/27 02:20:17;;;;;;;21.05;9.50;;;;;;;12.97;63.89;101623.50;5032827;28;20056;-86
2021/05/27 02:22:44;;;;;;;22.40;7.82;;;;;;;12.95;64.19;101624.41;5031879;28;20052;-85
2021/05/27 02:25:11;;;;;;;24.23;8.82;;;;;;;13.01;63.65;101634.06;5032585;28;20079;-85
2021/05/27 02:27:37;;;;;;;29.58;9.65;;;;;;;13.09;63.19;101628.63;5032514;28;20116;-87
2021/05/27 02:30:05;;;;;;;35.95;8.98;;;;;;;13.04;64.18;101633.16;5032544;28;20033;-86
2021/05/27 02:32:32;;;;;;;26.15;9.00;;;;;;;13.10;63.64;101641.88;5032238;28;20036;-86
2021/05/27 02:34:58;;;;;;;21.65;8.68;;;;;;;12.86;64.43;101637.88;5031533;28;20018;-86
2021/05/27 02:37:25;;;;;;;23.73;9.40;;;;;;;12.93;64.17;101631.56;5032227;28;20477;-85
2021/05/27 02:39:52;;;;;;;32.85;9.20;;;;;;;13.00;63.91;101634.09;5032600;28;20080;-86
2021/05/27 02:42:18;;;;;;;25.05;7.85;;;;;;;13.10;63.37;101633.91;5032392;28;20049;-86
2021/05/27 02:44:47;;;;;;;25.50;8.82;;;;;;;13.07;63.65;101638.38;5032328;28;20539;-85
2021/05/27 02:47:13;;;;;;;28.23;8.02;;;;;;;12.98;64.08;101628.78;5032024;28;20037;-85
2021/05/27 02:49:41;;;;;;;23.05;8.70;;;;;;;13.09;64.18;101636.59;5032582;28;20041;-85
2021/05/27 02:52:07;;;;;;;29.13;9.27;;;;;;;12.93;64.17;101628.91;5030057;28;20497;-85
2021/05/27 02:54:34;;;;;;;29.60;9.82;;;;;;;12.99;63.79;101648.31;5032173;28;20499;-85
2021/05/27 02:57:00;;;;;;;29.48;9.82;;;;;;;12.85;64.68;101640.56;5032269;28;20040;-85
2021/05/27 02:59:27;;;;;;;27.88;9.38;;;;;;;12.99;64.31;101635.00;5031714;28;20037;-86
2021/05/27 03:01:54;;;;;;;28.48;9.18;;;;;;;13.14;63.92;101640.03;5032066;28;20420;-85
2021/05/27 03:04:20;;;;;;;23.65;8.50;;;;;;;13.08;64.01;101640.16;5032113;28;20038;-86
2021/05/27 03:06:47;;;;;;;28.08;8.82;;;;;;;12.98;64.72;101639.44;5032170;28;20044;-85
2021/05/27 03:09:14;;;;;;;27.13;8.55;;;;;;;13.08;64.08;101642.81;5031958;28;20388;-85
2021/05/27 03:11:40;;;;;;;29.40;8.80;;;;;;;13.04;64.40;101631.34;5032161;28;20072;-86
2021/05/27 03:14:06;;;;;;;36.63;9.05;;;;;;;12.94;64.52;101648.38;5028234;28;20283;-85
2021/05/27 03:16:33;;;;;;;18.48;7.72;;;;;;;13.05;64.57;101634.91;5031352;28;20110;-85
2021/05/27 03:18:59;;;;;;;26.27;8.75;;;;;;;12.81;65.93;101634.41;5031494;28;20418;-86
2021/05/27 03:21:25;;;;;;;25.58;9.07;;;;;;;13.04;64.70;101642.00;5031557;28;20112;-86
2021/05/27 03:23:52;;;;;;;27.17;9.93;;;;;;;12.91;65.06;101638.69;5032442;28;20029;-86
2021/05/27 03:26:18;;;;;;;32.22;9.63;;;;;;;12.80;65.38;101640.63;5031590;28;20495;-86
2021/05/27 03:28:44;;;;;;;25.77;9.38;;;;;;;12.89;65.32;101643.13;5032014;28;20029;-86
2021/05/27 03:31:11;;;;;;;24.02;8.07;;;;;;;13.01;64.75;101646.47;5031478;28;20511;-86
2021/05/27 03:33:37;;;;;;;41.28;10.00;;;;;;;12.93;65.63;101650.19;5032389;28;20469;-86
2021/05/27 03:36:04;;;;;;;31.05;8.65;;;;;;;12.87;65.30;101647.63;5035853;28;20056;-87
2021/05/27 03:38:30;;;;;;;17.70;7.78;;;;;;;12.87;65.33;101639.63;5027344;28;20033;-85
2021/05/27 03:40:56;;;;;;;31.55;8.52;;;;;;;12.88;65.20;101641.38;5031562;28;20025;-86
2021/05/27 03:43:22;;;;;;;28.25;9.27;;;;;;;12.91;65.33;101644.00;5033769;28;20111;-86
2021/05/27 03:45:49;;;;;;;24.98;9.30;;;;;;;12.92;65.82;101648.41;5034226;28;20048;-86
2021/05/27 03:48:15;;;;;;;27.58;10.35;;;;;;;12.94;65.30;101645.72;5034688;28;20061;-86
2021/05/27 03:50:41;;;;;;;32.88;9.05;;;;;;;12.79;65.83;101644.19;5033367;28;20030;-86
2021/05/27 03:53:09;;;;;;;34.28;9.05;;;;;;;12.88;65.40;101638.72;5035447;28;20037;-86
2021/05/27 03:55:35;;;;;;;35.05;9.68;;;;;;;12.78;66.02;101648.66;5034318;28;20155;-86
2021/05/27 04:00:40;;;;;;;27.95;9.32;;;;;;;12.80;66.16;101648.63;5035344;28;20062;-86
2021/05/27 04:00:48;;;;;;;45.20;10.02;;;;;;;12.73;66.43;101655.78;5034403;28;20037;-86
2021/05/27 04:03:14;;;;;;;26.77;9.52;;;;;;;12.68;66.87;101651.47;5035303;28;20076;-86
2021/05/27 04:08:27;;;;;;;29.95;9.82;;;;;;;12.82;66.44;101653.91;5027718;28;20041;-85
2021/05/27 04:10:54;;;;;;;33.60;9.27;;;;;;;12.65;67.15;101655.06;5034057;28;20037;-85
2021/05/27 04:13:20;;;;;;;25.35;8.93;;;;;;;12.76;66.23;101660.19;5032045;28;20557;-85
2021/05/27 04:15:47;;;;;;;25.42;9.82;;;;;;;12.78;66.60;101650.41;5027931;28;20056;-85
2021/05/27 04:18:17;;;;;;;31.15;9.55;;;;;;;12.81;66.52;101668.09;5034218;28;20437;-86
2021/05/27 04:20:47;;;;;;;26.67;8.77;;;;;;;12.62;66.90;101661.31;5034196;28;20036;-86
2021/05/27 04:23:32;;;;;;;25.65;8.38;;;;;;;12.69;66.41;101662.06;5034622;28;20101;-85
2021/05/27 04:26:00;;;;;;;29.52;9.50;;;;;;;12.81;66.44;101663.66;5034378;28;20088;-87
2021/05/27 04:28:27;;;;;;;23.80;8.73;;;;;;;12.71;66.86;101657.63;5031831;28;20053;-85
2021/05/27 04:31:09;;;;;;;32.03;8.07;;;;;;;12.78;66.46;101659.28;5033908;28;20345;-86
2021/05/27 04:33:37;;;;;;;26.63;9.17;;;;;;;12.70;66.74;101663.84;5034115;28;20120;-85
2021/05/27 04:36:04;;;;;;;25.27;8.43;;;;;;;12.71;67.06;101675.34;5027401;28;20022;-86
2021/05/27 04:38:30;;;;;;;17.98;7.88;;;;;;;12.75;66.44;101664.63;5027863;28;20048;-86
2021/05/27 04:40:56;;;;;;;24.67;7.90;;;;;;;12.85;66.06;101654.72;5034145;28;20065;-86
2021/05/27 04:43:23;;;;;;;22.73;8.30;;;;;;;12.77;66.90;101669.91;5034502;28;20052;-85
2021/05/27 04:45:49;;;;;;;30.25;8.75;;;;;;;12.78;66.57;101669.03;5032422;28;20029;-86
2021/05/27 04:48:16;;;;;;;27.38;8.90;;;;;;;12.75;66.44;101669.94;5034550;28;20033;-87
2021/05/27 04:50:45;;;;;;;26.77;7.80;;;;;;;12.71;67.10;101667.34;5032733;28;20075;-86
2021/05/27 04:53:12;;;;;;;22.38;8.30;;;;;;;12.84;66.39;101662.75;5034287;28;20104;-86
2021/05/27 04:55:38;;;;;;;24.80;9.07;;;;;;;12.69;66.94;101674.50;5033290;28;20037;-86
2021/05/27 04:58:06;;;;;;;20.98;8.48;;;;;;;12.78;66.47;101674.34;5034293;28;20026;-87
2021/05/27 05:00:32;;;;;;;28.20;10.98;;;;;;;12.84;66.58;101689.34;5033682;28;20164;-86
2021/05/27 05:02:59;;;;;;;27.65;8.65;;;;;;;12.70;67.16;101677.13;5032953;28;20029;-85
2021/05/27 05:05:27;;;;;;;22.38;7.68;;;;;;;12.66;67.34;101687.81;5033393;28;20029;-85
2021/05/27 05:07:54;;;;;;;25.13;8.38;;;;;;;12.76;67.08;101692.09;5033093;28;20030;-86
2021/05/27 05:10:22;;;;;;;26.90;8.30;;;;;;;12.81;67.15;101690.28;5033545;28;20037;-85
2021/05/27 05:12:50;;;;;;;26.85;9.35;;;;;;;12.77;67.07;101688.53;5033131;28;20564;-87
2021/05/27 05:15:20;;;;;;;26.38;8.20;;;;;;;12.88;66.94;101694.56;5026772;28;20481;-86
2021/05/27 05:17:50;;;;;;;20.88;7.78;;;;;;;12.83;67.04;101692.91;5033096;28;20037;-85
2021/05/27 05:20:19;;;;;;;25.70;8.90;;;;;;;12.85;67.09;101689.31;5033372;28;20116;-85
2021/05/27 05:22:45;;;;;;;27.92;9.93;;;;;;;12.92;66.79;101698.94;5032237;28;20444;-86
2021/05/27 05:25:12;;;;;;;24.05;8.38;;;;;;;12.81;67.21;101700.91;5033543;28;20112;-86
2021/05/27 05:27:45;;;;;;;26.25;8.90;;;;;;;12.91;66.63;101699.84;5031723;28;20083;-82
2021/05/27 05:30:14;;;;;;;19.25;9.57;;;;;;;12.92;66.48;101696.28;5032503;28;20037;-85
2021/05/27 05:32:42;;;;;;;25.80;8.15;;;;;;;12.99;66.97;101699.72;5028119;28;20108;-84
2021/05/27 05:35:11;;;;;;;28.35;8.25;;;;;;;12.83;67.03;101701.75;5027814;28;20053;-84
2021/05/27 05:37:39;;;;;;;25.58;8.30;;;;;;;12.89;67.28;101709.63;5023184;28;20104;-84
2021/05/27 05:40:09;;;;;;;30.88;8.80;;;;;;;12.89;67.28;101706.97;5033541;28;20041;-84
2021/05/27 05:42:37;;;;;;;23.85;8.25;;;;;;;12.93;66.63;101711.34;5032797;28;20048;-85
2021/05/27 05:45:05;;;;;;;25.58;8.20;;;;;;;12.85;66.73;101707.06;5031582;28;20037;-86
2021/05/27 05:47:32;;;;;;;26.50;8.82;;;;;;;12.88;66.50;101714.97;5032887;28;20032;-84
2021/05/27 05:49:58;;;;;;;28.40;7.85;;;;;;;12.90;66.57;101716.69;5033021;28;20063;-88
2021/05/27 05:52:25;;;;;;;24.98;8.45;;;;;;;12.77;67.33;101717.78;5032088;28;20181;-88
2021/05/27 05:54:51;;;;;;;27.90;8.35;;;;;;;12.89;66.38;101724.72;5029030;28;20116;-85
2021/05/27 05:57:17;;;;;;;24.75;7.13;;;;;;;12.85;66.56;101723.88;5016347;28;20080;-85
2021/05/27 05:59:43;;;;;;;29.08;8.15;;;;;;;12.93;66.81;101729.97;5014126;28;20105;-87
2021/05/27 06:02:10;;;;;;;28.00;9.00;;;;;;;12.84;66.37;101732.75;5025442;28;20033;-86
2021/05/27 06:04:36;;;;;;;25.02;9.00;;;;;;;12.83;66.82;101731.00;5029482;28;20076;-87
2021/05/27 06:07:02;;;;;;;24.70;7.40;;;;;;;12.90;66.71;101739.78;5023581;28;20052;-82
2021/05/27 06:09:28;;;;;;;26.83;9.02;;;;;;;12.89;66.20;101730.91;5027312;28;20092;-88
2021/05/27 06:11:54;;;;;;;26.23;7.40;;;;;;;12.79;66.69;101738.13;5029207;28;20029;-88
2021/05/27 06:14:21;;;;;;;27.55;7.75;;;;;;;12.93;66.15;101731.72;5028335;28;20119;-89
2021/05/27 06:16:47;;;;;;;27.17;7.55;;;;;;;12.68;66.65;101744.53;5031267;28;20485;-87
2021/05/27 06:19:14;;;;;;;23.10;8.13;;;;;;;12.75;66.62;101738.22;5031418;28;20535;-87
2021/05/27 06:21:41;;;;;;;24.55;6.82;;;;;;;12.72;66.63;101746.22;5026519;28;20087;-87
2021/05/27 06:24:08;;;;;;;19.55;7.65;;;;;;;12.80;66.41;101747.00;5031611;28;20032;-85
2021/05/27 06:26:36;;;;;;;28.13;8.00;;;;;;;12.77;66.67;101739.97;5031694;28;20501;-86
2021/05/27 06:29:03;;;;;;;22.40;7.07;;;;;;;12.72;66.81;101751.56;5031814;28;20026;-86
2021/05/27 06:31:29;;;;;;;22.92;8.63;;;;;;;12.76;66.29;101758.56;5031401;28;20136;-86
2021/05/27 06:33:55;;;;;;;28.13;9.25;;;;;;;12.90;66.44;101743.31;5030174;28;20036;-85
2021/05/27 06:36:22;;;;;;;24.17;8.23;;;;;;;12.93;66.46;101748.59;5031486;28;20040;-84
2021/05/27 06:38:48;;;;;;;27.27;9.02;;;;;;;12.79;66.98;101758.53;5031581;28;20032;-85
2021/05/27 06:41:19;;;;;;;31.13;8.32;;;;;;;12.85;66.67;101766.44;5029007;28;20084;-86
2021/05/27 06:43:46;;;;;;;20.20;8.10;;;;;;;12.88;66.47;101753.06;5032348;28;20040;-86
2021/05/27 06:46:13;;;;;;;21.38;7.50;;;;;;;12.90;66.08;101759.25;5032125;28;20380;-87
2021/05/27 06:48:39;;;;;;;28.48;7.93;;;;;;;12.87;66.34;101775.28;5032202;28;20030;-87
2021/05/27 06:51:06;;;;;;;23.08;7.13;;;;;;;12.70;66.70;101762.22;5032252;28;20028;-85
2021/05/27 06:53:32;;;;;;;24.23;7.20;;;;;;;12.92;66.17;101773.44;5032593;28;20028;-87
2021/05/27 06:55:58;;;;;;;25.58;7.90;;;;;;;12.91;66.06;101765.44;5024646;28;20084;-89
2021/05/27 06:58:24;;;;;;;24.90;7.55;;;;;;;12.82;66.32;101781.56;5019698;28;20540;-85
2021/05/27 07:00:50;;;;;;;29.15;8.18;;;;;;;12.89;66.02;101778.78;5031471;28;20046;-84
2021/05/27 07:03:18;;;;;;;18.88;7.38;;;;;;;12.87;66.48;101771.72;5031284;28;20080;-85
2021/05/27 07:05:44;;;;;;;21.85;6.68;;;;;;;12.87;65.95;101790.34;5031297;28;20477;-86
2021/05/27 07:08:11;;;;;;;22.00;7.60;;;;;;;12.92;66.25;101789.38;5031309;28;20041;-84
2021/05/27 07:10:37;;;;;;;28.52;7.40;;;;;;;13.04;65.81;101784.78;5035925;28;20040;-85
2021/05/27 07:13:07;;;;;;;23.15;7.30;;;;;;;13.07;65.87;101782.97;5035165;28;20400;-85
2021/05/27 07:15:34;;;;;;;31.33;7.63;;;;;;;12.77;66.42;101794.91;5035279;28;20113;-85
2021/05/27 07:18:00;;;;;;;28.58;8.43;;;;;;;12.93;66.24;101792.91;5035504;28;20095;-85
2021/05/27 07:20:27;;;;;;;20.15;7.70;;;;;;;12.86;66.71;101791.25;5035624;28;20108;-85
2021/05/27 07:22:55;;;;;;;23.23;7.28;;;;;;;12.93;66.05;101790.25;5035376;28;20421;-86
2021/05/27 07:25:23;;;;;;;20.65;8.05;;;;;;;12.94;66.59;101790.22;5035404;28;20074;-85
2021/05/27 07:27:51;;;;;;;23.85;7.60;;;;;;;13.06;66.13;101793.59;5035189;28;20025;-85
2021/05/27 07:30:18;;;;;;;22.30;6.35;;;;;;;12.87;66.46;101796.56;5035410;28;20021;-85
2021/05/27 07:32:45;;;;;;;34.80;12.88;;;;;;;13.08;65.75;101789.16;5035441;28;20077;-85
2021/05/27 07:35:12;;;;;;;20.38;7.18;;;;;;;13.05;66.54;101792.72;5033772;28;20392;-84
2021/05/27 07:37:38;;;;;;;20.40;6.68;;;;;;;13.17;65.44;101799.66;5035069;28;20082;-85
2021/05/27 07:40:06;;;;;;;23.73;6.55;;;;;;;13.20;66.09;101798.75;5035509;28;20029;-85
2021/05/27 07:42:32;;;;;;;15.05;5.93;;;;;;;13.22;66.12;101803.13;5034713;28;20025;-87
2021/05/27 07:44:59;;;;;;;18.55;6.18;;;;;;;13.32;65.43;101803.88;5034390;28;20044;-85
2021/05/27 07:47:25;;;;;;;16.13;6.20;;;;;;;13.34;66.22;101814.47;5033385;28;20035;-87
2021/05/27 07:49:51;;;;;;;25.08;6.68;;;;;;;13.31;65.86;101814.50;5034835;28;20026;-82
2021/05/27 07:52:18;;;;;;;20.65;6.10;;;;;;;13.31;66.10;101812.75;5034044;28;20147;-86
2021/05/27 07:54:44;;;;;;;18.00;6.82;;;;;;;13.25;66.43;101815.50;5031119;28;20057;-87
2021/05/27 07:57:10;;;;;;;17.63;6.78;;;;;;;13.18;66.27;101822.69;5032046;28;20033;-86
2021/05/27 07:59:36;;;;;;;22.88;6.72;;;;;;;13.29;66.14;101816.34;5033183;28;20112;-84
2021/05/27 08:02:05;;;;;;;25.58;6.88;;;;;;;13.18;66.33;101832.47;5033525;28;20026;-88
2021/05/27 08:04:32;;;;;;;24.00;6.68;;;;;;;13.13;66.76;101829.84;5031970;28;20044;-86
2021/05/27 08:06:58;;;;;;;18.77;7.05;;;;;;;13.12;66.91;101822.78;5032752;28;20037;-88
2021/05/27 08:09:24;;;;;;;20.77;8.00;;;;;;;13.20;66.77;101831.53;5033110;28;20060;-88
2021/05/27 08:11:50;;;;;;;33.85;7.18;;;;;;;13.32;66.36;101826.91;5029499;28;20041;-85
2021/05/27 08:14:16;;;;;;;18.15;6.32;;;;;;;13.32;66.38;101825.16;5031063;28;20072;-88
2021/05/27 08:16:42;;;;;;;27.48;6.63;;;;;;;13.23;66.62;101831.50;5033218;28;20048;-88
2021/05/27 08:19:09;;;;;;;25.60;6.47;;;;;;;13.21;66.85;101827.97;5032438;28;20041;-86
2021/05/27 08:21:35;;;;;;;17.75;6.28;;;;;;;13.24;66.74;101827.03;5032601;28;20045;-85
2021/05/27 08:24:01;;;;;;;23.25;6.47;;;;;;;13.33;66.58;101834.00;5034231;28;20034;-86
2021/05/27 08:26:27;;;;;;;23.08;6.85;;;;;;;13.31;66.84;101835.81;5034329;28;20025;-84
2021/05/27 08:28:55;;;;;;;25.50;7.20;;;;;;;13.21;66.69;101841.28;5034205;28;20041;-86
2021/05/27 08:31:21;;;;;;;21.73;6.85;;;;;;;13.23;66.66;101851.91;5034170;28;20022;-85
2021/05/27 08:33:49;;;;;;;22.10;6.35;;;;;;;13.16;67.01;101848.47;5033826;28;20029;-85
2021/05/27 08:36:16;;;;;;;17.60;6.88;;;;;;;13.36;65.84;101847.28;5034187;28;20083;-86
2021/05/27 08:38:43;;;;;;;29.33;7.72;;;;;;;13.34;66.32;101849.09;5033952;28;20029;-85
2021/05/27 08:41:11;;;;;;;19.27;5.78;;;;;;;13.23;65.77;101847.47;5031683;28;20105;-85
2021/05/27 08:43:37;;;;;;;28.88;7.20;;;;;;;13.29;66.29;101857.13;5034125;28;20373;-85
2021/05/27 08:46:05;;;;;;;17.77;6.30;;;;;;;13.23;66.15;101854.56;5033697;28;20033;-85
2021/05/27 08:48:32;;;;;;;15.32;5.93;;;;;;;13.51;65.73;101851.53;5033755;28;20037;-85
2021/05/27 08:50:59;;;;;;;28.08;6.90;;;;;;;13.26;66.12;101855.41;5034030;28;20033;-85
2021/05/27 08:53:26;;;;;;;24.13;7.20;;;;;;;13.46;65.92;101859.56;5032732;28;20388;-85
2021/05/27 08:55:52;;;;;;;19.08;7.43;;;;;;;13.52;65.93;101869.22;5033848;28;20025;-84
2021/05/27 08:58:19;;;;;;;21.63;7.55;;;;;;;13.71;65.88;101864.50;5033852;28;20493;-84
2021/05/27 09:00:46;;;;;;;19.58;8.23;;;;;;;13.77;65.67;101864.41;5033489;28;20026;-85
2021/05/27 09:03:15;;;;;;;15.88;6.85;;;;;;;13.88;64.83;101859.75;5033780;28;20030;-84
2021/05/27 09:05:41;;;;;;;16.70;6.28;;;;;;;13.85;65.21;101862.47;5033800;28;20037;-84
2021/05/27 09:08:09;;;;;;;20.08;5.72;;;;;;;13.98;64.77;101856.91;5033584;28;20554;-83
2021/05/27 09:10:47;;;;;;;18.85;7.10;;;;;;;13.98;64.65;101865.81;5033130;28;20038;-83
2021/05/27 09:13:17;;;;;;;19.25;6.30;;;;;;;13.94;64.66;101861.41;5031590;28;20350;-85
2021/05/27 09:15:45;;;;;;;15.25;5.15;;;;;;;13.92;63.90;101873.91;5033553;28;20152;-83
2021/05/27 09:18:11;;;;;;;19.50;6.15;;;;;;;13.90;64.14;101876.59;5032520;28;20079;-84
2021/05/27 09:20:38;;;;;;;21.00;6.72;;;;;;;13.79;63.53;101881.22;5033236;28;20075;-84
2021/05/27 09:26:10;;;;;;;13.88;6.28;;;;;;;14.10;63.41;101886.00;5069203;28;20410;-82
2021/05/27 09:28:37;;;;;;;20.23;6.13;;;;;;;13.98;63.04;101878.25;5066840;28;20116;-83
2021/05/27 09:31:07;;;;;;;29.17;6.60;;;;;;;14.11;62.70;101890.44;5067120;28;20151;-82
2021/05/27 09:36:14;;;;;;;22.73;6.30;;;;;;;14.08;62.63;101890.47;5071137;27;20402;-84
2021/05/27 09:38:42;;;;;;;21.60;6.55;;;;;;;14.06;62.38;101905.63;5066994;28;20104;-84
2021/05/27 09:41:25;;;;;;;22.00;6.32;;;;;;;14.03;61.82;101903.91;5062765;28;20120;-83
2021/05/27 09:43:53;;;;;;;26.25;6.43;;;;;;;13.94;62.14;101913.84;5045260;28;20036;-84
2021/05/27 09:46:21;;;;;;;21.75;5.85;;;;;;;13.83;62.47;101914.91;5049569;28;20028;-84
2021/05/27 09:49:01;;;;;;;19.17;7.20;;;;;;;14.13;61.61;101909.97;5046096;28;20540;-84
2021/05/27 09:51:29;;;;;;;19.75;6.40;;;;;;;14.06;61.77;101908.31;5048811;28;20041;-83
2021/05/27 09:53:56;;;;;;;23.02;5.97;;;;;;;14.21;61.37;101921.34;5048408;28;20088;-83
2021/05/27 09:56:39;;;;;;;20.27;6.57;;;;;;;14.39;61.09;101908.59;5048711;28;20435;-83
2021/05/27 09:59:07;;;;;;;22.13;6.53;;;;;;;14.42;61.19;101913.88;5048926;28;20033;-83
2021/05/27 10:01:33;;;;;;;24.02;6.53;;;;;;;14.33;61.31;101922.03;5048009;28;20028;-83
2021/05/27 10:04:17;;;;;;;27.15;7.63;;;;;;;14.35;60.90;101914.88;5048321;28;20033;-80
2021/05/27 10:06:44;;;;;;;22.38;6.57;;;;;;;14.46;60.80;101918.22;5048038;28;20112;-84
2021/05/27 10:09:11;;;;;;;28.60;7.72;;;;;;;14.42;61.22;101919.22;5047760;28;20801;-83
2021/05/27 10:11:39;;;;;;;25.13;7.05;;;;;;;14.33;61.34;101927.34;5047222;28;20052;-83
2021/05/27 10:14:07;;;;;;;29.33;7.53;;;;;;;14.36;61.39;101928.19;5047899;28;20037;-81
2021/05/27 10:16:37;;;;;;;37.20;8.20;;;;;;;14.53;60.93;101933.22;5048030;28;20088;-84
2021/05/27 10:19:05;;;;;;;24.95;7.13;;;;;;;14.44;60.99;101933.38;5047604;28;20036;-85
2021/05/27 10:21:31;;;;;;;19.40;5.47;;;;;;;14.31;61.02;101939.84;5047450;28;20041;-84
2021/05/27 10:23:59;;;;;;;24.27;6.70;;;;;;;14.35;61.13;101947.75;5047869;28;20029;-83
2021/05/27 10:26:26;;;;;;;21.60;6.38;;;;;;;14.24;61.30;101942.63;5047250;28;20018;-81
2021/05/27 10:28:54;;;;;;;19.33;6.00;;;;;;;14.30;61.06;101943.41;5047522;28;20029;-84
2021/05/27 10:31:24;;;;;;;20.55;5.72;;;;;;;14.22;61.50;101949.75;5045820;28;20178;-84
2021/05/27 10:33:50;;;;;;;24.45;6.18;;;;;;;14.18;61.46;101950.72;5047233;28;20033;-83
2021/05/27 10:36:16;;;;;;;17.58;5.65;;;;;;;14.11;61.97;101954.41;5047414;28;20150;-84
2021/05/27 10:38:47;;;;;;;18.77;6.68;;;;;;;14.20;61.50;101951.56;5047402;28;20029;-83
2021/05/27 10:52:35;;;;;;;18.05;6.22;;;;;;;14.52;61.27;101947.44;5054211;28;20499;-84
2021/05/27 10:55:06;;;;;;;19.65;6.88;;;;;;;14.47;61.66;101961.78;5032689;28;20029;-84
2021/05/27 11:03:42;;;;;;;18.67;6.00;;;;;;;14.33;62.33;101973.56;5069203;28;20413;-87
2021/05/27 11:06:28;;;;;;;19.40;6.72;;;;;;;14.00;63.34;101973.22;5063577;28;20048;-83
2021/05/27 11:11:57;;;;;;;14.90;5.65;;;;;;;14.24;62.68;101971.94;5053684;28;20206;-83
2021/05/27 11:14:35;;;;;;;20.05;6.00;;;;;;;14.01;64.12;101969.66;5056425;28;20143;-83
2021/05/27 11:25:31;;;;;;;18.35;5.35;;;;;;;14.87;62.91;101977.06;5074710;28;20601;-83
2021/05/27 11:28:21;;;;;;;16.13;5.55;;;;;;;15.19;61.66;101968.38;5050688;28;20373;-84
2021/05/27 11:30:52;;;;;;;16.48;4.95;;;;;;;15.39;61.53;101972.41;5045724;28;20033;-81
2021/05/27 11:36:06;;;;;;;12.80;5.00;;;;;;;15.83;60.51;101975.88;5065388;28;20750;-84
2021/05/27 11:38:35;;;;;;;15.18;5.35;;;;;;;16.02;60.06;101967.41;5065011;28;20104;-82
2021/05/27 11:41:05;;;;;;;10.63;4.68;;;;;;;15.98;59.62;101966.59;5053971;28;20570;-83
2021/05/27 11:46:17;;;;;;;19.70;5.65;;;;;;;16.06;59.33;101971.75;5103363;27;20391;-82
2021/05/27 11:48:56;;;;;;;21.15;6.20;;;;;;;16.35;59.48;101964.81;5101899;28;20099;-77
2021/05/27 11:54:10;;;;;;;15.63;4.82;;;;;;;16.77;57.31;101961.88;5069824;27;20417;-83
2021/05/27 11:56:42;;;;;;;17.40;4.13;;;;;;;16.58;56.07;101977.53;5066057;28;20035;-84
2021/05/27 11:59:11;;;;;;;14.20;3.30;;;;;;;16.71;55.73;101969.19;5064306;28;20032;-82
2021/05/27 12:01:39;;;;;;;11.25;3.55;;;;;;;16.66;55.73;101980.03;5054718;28;20112;-83
2021/05/27 12:12:18;;;;;;;14.70;3.42;;;;;;;17.28;54.42;101986.31;5048531;28;20459;-83